createdAt,value
2018-06-11T00:01:27.612Z,100390.73
2018-06-11T00:04:00.966Z,100389.61
2018-06-11T00:06:34.348Z,100389.41
2018-06-11T00:09:08.518Z,100394.09
2018-06-11T00:11:41.896Z,100392.67
2018-06-11T00:14:15.292Z,100390.71
2018-06-11T00:16:48.750Z,100397.28
2018-06-11T00:19:22.132Z,100391.08
2018-06-11T00:21:55.528Z,100392.70
2018-06-11T00:24:28.918Z,100387.23
2018-06-11T00:27:02.306Z,100391.11
2018-06-11T00:29:35.671Z,100392.56
2018-06-11T00:32:09.058Z,100395.31
2018-06-11T00:34:42.424Z,100392.98
2018-06-11T00:37:15.800Z,100399.30
2018-06-11T00:39:49.177Z,100405.96
2018-06-11T00:42:22.563Z,100399.72
2018-06-11T00:44:55.944Z,100393.89
2018-06-11T00:47:29.319Z,100393.98
2018-06-11T00:50:02.700Z,100394.81
2018-06-11T00:52:36.087Z,100400.97
2018-06-11T00:55:09.453Z,100407.22
2018-06-11T00:57:42.837Z,100407.89
2018-06-11T01:00:16.225Z,100408.05
2018-06-11T01:02:49.648Z,100403.81
2018-06-11T01:05:23.015Z,100409.59
2018-06-11T01:07:56.387Z,100402.09
2018-06-11T01:10:29.744Z,100402.63
2018-06-11T01:13:03.197Z,100402.16
2018-06-11T01:15:36.583Z,100399.70
2018-06-11T01:18:09.967Z,100398.41
2018-06-11T01:20:43.346Z,100393.67
2018-06-11T01:23:16.732Z,100387.25
2018-06-11T01:25:50.111Z,100386.52
2018-06-11T01:28:23.504Z,100379.39
2018-06-11T01:30:56.913Z,100368.29
2018-06-11T01:33:30.314Z,100371.40
2018-06-11T01:36:03.684Z,100375.00
2018-06-11T01:38:37.063Z,100379.86
2018-06-11T01:41:10.416Z,100392.00
2018-06-11T01:43:43.799Z,100393.17
2018-06-11T01:46:17.169Z,100396.37
2018-06-11T01:48:50.567Z,100395.76
2018-06-11T01:51:23.930Z,100392.13
2018-06-11T01:53:57.328Z,100396.77
2018-06-11T01:56:30.714Z,100403.46
2018-06-11T01:59:04.125Z,100404.13
2018-06-11T02:01:37.502Z,100403.55
2018-06-11T02:04:10.892Z,100399.73
2018-06-11T02:06:44.258Z,100403.61
2018-06-11T02:09:17.637Z,100410.06
2018-06-11T02:11:50.975Z,100407.02
2018-06-11T02:14:24.396Z,100412.42
2018-06-11T02:16:57.768Z,100413.50
2018-06-11T02:19:31.148Z,100414.62
2018-06-11T02:22:04.565Z,100414.16
2018-06-11T02:24:37.956Z,100418.73
2018-06-11T02:27:11.324Z,100417.73
2018-06-11T02:29:44.720Z,100418.95
2018-06-11T02:32:18.092Z,100421.50
2018-06-11T02:34:51.499Z,100422.11
2018-06-11T02:37:24.849Z,100421.05
2018-06-11T02:39:58.247Z,100428.58
2018-06-11T02:42:31.637Z,100425.28
2018-06-11T02:45:05.074Z,100421.50
2018-06-11T02:47:38.465Z,100430.88
2018-06-11T02:50:11.840Z,100431.48
2018-06-11T02:52:45.251Z,100433.82
2018-06-11T02:55:18.651Z,100431.06
2018-06-11T02:57:52.065Z,100434.16
2018-06-11T03:00:25.438Z,100438.33
2018-06-11T03:02:58.812Z,100426.23
2018-06-11T03:05:32.171Z,100416.97
2018-06-11T03:08:05.562Z,100418.49
2018-06-11T03:10:38.929Z,100423.41
2018-06-11T03:13:12.333Z,100428.72
2018-06-11T03:15:45.716Z,100434.51
2018-06-11T03:18:19.753Z,100438.87
2018-06-11T03:20:53.132Z,100435.73
2018-06-11T03:23:26.512Z,100430.26
2018-06-11T03:25:59.903Z,100432.22
2018-06-11T03:28:33.296Z,100435.89
2018-06-11T03:31:06.775Z,100433.02
2018-06-11T03:33:40.164Z,100441.58
2018-06-11T03:36:13.543Z,100444.91
2018-06-11T03:38:46.968Z,100446.73
2018-06-11T03:41:20.335Z,100440.05
2018-06-11T03:43:53.726Z,100437.20
2018-06-11T03:46:27.104Z,100431.66
2018-06-11T03:49:00.488Z,100434.75
2018-06-11T03:51:33.837Z,100442.02
2018-06-11T03:54:07.240Z,100441.05
2018-06-11T03:56:40.601Z,100442.52
2018-06-11T03:59:13.992Z,100435.04
2018-06-11T04:01:47.389Z,100437.08
2018-06-11T04:04:20.912Z,100433.61
2018-06-11T04:06:54.336Z,100435.19
2018-06-11T04:09:27.768Z,100431.59
2018-06-11T04:12:01.148Z,100433.50
2018-06-11T04:14:34.591Z,100439.66
2018-06-11T04:17:07.979Z,100438.02
2018-06-11T04:19:41.385Z,100436.18
2018-06-11T04:22:14.810Z,100430.52
2018-06-11T04:24:48.283Z,100427.16
2018-06-11T04:27:21.696Z,100430.97
2018-06-11T04:29:55.147Z,100432.36
2018-06-11T04:32:28.630Z,100432.27
2018-06-11T04:35:02.209Z,100431.58
2018-06-11T04:37:35.621Z,100441.60
2018-06-11T04:40:09.076Z,100452.79
2018-06-11T04:42:42.493Z,100455.03
2018-06-11T04:45:15.939Z,100456.18
2018-06-11T04:47:49.384Z,100455.12
2018-06-11T04:50:22.830Z,100451.85
2018-06-11T04:52:56.230Z,100448.61
2018-06-11T04:55:29.686Z,100450.04
2018-06-11T04:58:03.089Z,100448.55
2018-06-11T05:00:36.555Z,100450.98
2018-06-11T05:03:09.985Z,100450.67
2018-06-11T05:05:43.411Z,100444.59
2018-06-11T05:08:16.826Z,100452.34
2018-06-11T05:10:50.268Z,100452.19
2018-06-11T05:13:23.670Z,100446.41
2018-06-11T05:15:57.143Z,100454.47
2018-06-11T05:18:30.581Z,100451.88
2018-06-11T05:21:04.821Z,100460.47
2018-06-11T05:23:38.230Z,100455.47
2018-06-11T05:26:11.651Z,100464.63
2018-06-11T05:28:45.122Z,100463.56
2018-06-11T05:31:18.515Z,100456.56
2018-06-11T05:33:51.896Z,100465.53
2018-06-11T05:36:25.314Z,100472.82
2018-06-11T05:38:58.714Z,100471.90
2018-06-11T05:41:32.122Z,100473.50
2018-06-11T05:44:05.556Z,100477.44
2018-06-11T05:46:38.960Z,100472.89
2018-06-11T05:49:12.353Z,100482.17
2018-06-11T05:51:45.751Z,100487.55
2018-06-11T05:54:19.388Z,100481.68
2018-06-11T05:56:52.768Z,100483.98
2018-06-11T05:59:26.182Z,100484.76
2018-06-11T06:01:59.576Z,100480.55
2018-06-11T06:04:32.968Z,100482.85
2018-06-11T06:07:06.365Z,100484.41
2018-06-11T06:09:39.756Z,100489.94
2018-06-11T06:12:13.169Z,100482.86
2018-06-11T06:14:46.627Z,100488.52
2018-06-11T06:17:20.069Z,100489.95
2018-06-11T06:19:53.522Z,100493.58
2018-06-11T06:22:26.943Z,100489.94
2018-06-11T06:25:00.390Z,100486.95
2018-06-11T06:27:33.773Z,100487.40
2018-06-11T06:30:07.180Z,100486.67
2018-06-11T06:32:40.573Z,100487.85
2018-06-11T06:35:13.951Z,100492.34
2018-06-11T06:37:47.348Z,100487.40
2018-06-11T06:40:20.723Z,100482.86
2018-06-11T06:42:54.114Z,100481.95
2018-06-11T06:45:27.520Z,100485.67
2018-06-11T06:48:00.880Z,100486.73
2018-06-11T06:50:34.260Z,100490.00
2018-06-11T06:53:07.659Z,100483.45
2018-06-11T06:55:41.088Z,100483.94
2018-06-11T06:58:14.468Z,100482.59
2018-06-11T07:00:47.915Z,100488.05
2018-06-11T07:03:21.324Z,100489.73
2018-06-11T07:05:54.773Z,100485.00
2018-06-11T07:08:28.221Z,100490.01
2018-06-11T07:11:01.685Z,100490.65
2018-06-11T07:13:35.127Z,100493.80
2018-06-11T07:16:09.590Z,100496.41
2018-06-11T07:18:43.872Z,100493.00
2018-06-11T07:21:17.826Z,100485.16
2018-06-11T07:23:51.750Z,100487.58
2018-06-11T07:26:25.407Z,100492.48
2018-06-11T07:28:59.033Z,100478.00
2018-06-11T07:31:32.486Z,100476.51
2018-06-11T07:34:06.049Z,100475.21
2018-06-11T07:36:39.564Z,100471.32
2018-06-11T07:39:13.020Z,100483.39
2018-06-11T07:41:46.509Z,100489.95
2018-06-11T07:44:20.031Z,100492.56
2018-06-11T07:46:53.488Z,100497.12
2018-06-11T07:49:26.884Z,100504.14
2018-06-11T07:52:00.303Z,100494.86
2018-06-11T07:54:33.677Z,100491.20
2018-06-11T07:57:07.096Z,100493.36
2018-06-11T07:59:40.484Z,100494.13
2018-06-11T08:02:13.909Z,100494.44
2018-06-11T08:04:47.288Z,100497.03
2018-06-11T08:07:20.676Z,100494.20
2018-06-11T08:09:54.052Z,100492.74
2018-06-11T08:12:27.483Z,100488.90
2018-06-11T08:15:00.916Z,100484.74
2018-06-11T08:17:34.355Z,100482.34
2018-06-11T08:20:07.764Z,100492.29
2018-06-11T08:22:41.147Z,100485.27
2018-06-11T08:25:14.549Z,100486.31
2018-06-11T08:27:47.999Z,100485.28
2018-06-11T08:30:21.385Z,100487.11
2018-06-11T08:32:54.764Z,100486.73
2018-06-11T08:35:28.213Z,100491.94
2018-06-11T08:38:01.636Z,100488.20
2018-06-11T08:40:34.996Z,100483.28
2018-06-11T08:43:08.420Z,100488.07
2018-06-11T08:45:41.791Z,100483.41
2018-06-11T08:48:15.337Z,100475.31
2018-06-11T08:50:48.781Z,100477.97
2018-06-11T08:53:22.183Z,100475.71
2018-06-11T08:55:55.564Z,100472.91
2018-06-11T08:58:28.960Z,100487.84
2018-06-11T09:01:02.370Z,100491.04
2018-06-11T09:03:35.782Z,100498.40
2018-06-11T09:06:09.161Z,100502.92
2018-06-11T09:08:42.545Z,100497.08
2018-06-11T09:11:15.924Z,100496.40
2018-06-11T09:13:49.389Z,100484.77
2018-06-11T09:16:22.777Z,100490.20
2018-06-11T09:18:56.179Z,100488.69
2018-06-11T09:21:29.629Z,100482.86
2018-06-11T09:24:03.024Z,100486.19
2018-06-11T09:26:36.463Z,100488.92
2018-06-11T09:29:09.817Z,100481.46
2018-06-11T09:31:43.201Z,100484.17
2018-06-11T09:34:16.564Z,100482.64
2018-06-11T09:36:49.971Z,100483.80
2018-06-11T09:39:23.373Z,100471.92
2018-06-11T09:41:56.755Z,100473.70
2018-06-11T09:44:30.121Z,100466.84
2018-06-11T09:47:03.538Z,100461.24
2018-06-11T09:49:36.942Z,100465.98
2018-06-11T09:52:10.329Z,100458.88
2018-06-11T09:54:43.730Z,100470.48
2018-06-11T09:57:17.100Z,100460.14
2018-06-11T09:59:50.474Z,100456.56
2018-06-11T10:02:23.869Z,100463.00
2018-06-11T10:04:57.246Z,100467.70
2018-06-11T10:07:30.624Z,100469.37
2018-06-11T10:10:04.024Z,100464.71
2018-06-11T10:12:37.459Z,100465.60
2018-06-11T10:15:10.884Z,100466.84
2018-06-11T10:17:44.287Z,100461.24
2018-06-11T10:20:17.646Z,100467.34
2018-06-11T10:22:51.043Z,100472.20
2018-06-11T10:25:24.401Z,100478.36
2018-06-11T10:27:57.880Z,100467.77
2018-06-11T10:30:31.228Z,100468.49
2018-06-11T10:33:04.630Z,100470.72
2018-06-11T10:35:37.989Z,100469.58
2018-06-11T10:38:11.348Z,100477.11
2018-06-11T10:40:44.710Z,100484.27
2018-06-11T10:43:18.105Z,100483.53
2018-06-11T10:45:51.504Z,100481.20
2018-06-11T10:48:24.880Z,100473.16
2018-06-11T10:50:58.324Z,100464.81
2018-06-11T10:53:31.702Z,100461.32
2018-06-11T10:56:05.159Z,100461.32
2018-06-11T10:58:38.564Z,100452.83
2018-06-11T11:01:11.925Z,100450.70
2018-06-11T11:03:45.312Z,100443.15
2018-06-11T11:06:18.741Z,100442.78
2018-06-11T11:08:52.131Z,100435.36
2018-06-11T11:11:25.520Z,100429.28
2018-06-11T11:13:58.912Z,100434.66
2018-06-11T11:16:32.318Z,100429.73
2018-06-11T11:19:05.783Z,100430.77
2018-06-11T11:21:39.133Z,100431.11
2018-06-11T11:24:12.521Z,100423.06
2018-06-11T11:26:45.873Z,100414.20
2018-06-11T11:29:19.269Z,100411.60
2018-06-11T11:31:52.644Z,100408.50
2018-06-11T11:34:26.066Z,100411.73
2018-06-11T11:36:59.438Z,100407.33
2018-06-11T11:39:32.879Z,100412.63
2018-06-11T11:42:06.321Z,100409.94
2018-06-11T11:44:43.235Z,100406.20
2018-06-11T11:47:20.974Z,100403.28
2018-06-11T11:49:54.435Z,100397.42
2018-06-11T11:52:27.882Z,100396.11
2018-06-11T11:55:01.348Z,100393.91
2018-06-11T11:57:34.742Z,100400.19
2018-06-11T12:00:08.498Z,100399.60
2018-06-11T12:02:42.220Z,100394.09
2018-06-11T12:05:15.884Z,100393.34
2018-06-11T12:07:49.281Z,100388.17
2018-06-11T12:10:22.702Z,100382.22
2018-06-11T12:12:56.105Z,100386.45
2018-06-11T12:15:29.777Z,100384.53
2018-06-11T12:18:03.135Z,100371.66
2018-06-11T12:20:36.522Z,100378.31
2018-06-11T12:23:09.902Z,100377.75
2018-06-11T12:25:43.292Z,100368.61
2018-06-11T12:28:16.672Z,100373.14
2018-06-11T12:30:50.090Z,100369.81
2018-06-11T12:33:23.441Z,100369.68
2018-06-11T12:35:56.849Z,100365.83
2018-06-11T12:38:30.235Z,100363.63
2018-06-11T12:41:03.601Z,100359.71
2018-06-11T12:43:36.983Z,100347.47
2018-06-11T12:46:10.378Z,100345.95
2018-06-11T12:48:43.752Z,100339.89
2018-06-11T12:51:17.110Z,100328.44
2018-06-11T12:53:50.506Z,100331.64
2018-06-11T12:56:23.942Z,100327.53
2018-06-11T12:58:57.336Z,100332.92
2018-06-11T13:01:30.754Z,100332.98
2018-06-11T13:04:04.192Z,100325.46
2018-06-11T13:06:37.603Z,100326.30
2018-06-11T13:09:10.995Z,100317.97
2018-06-11T13:11:44.382Z,100314.44
2018-06-11T13:14:18.650Z,100318.03
2018-06-11T13:16:52.018Z,100314.64
2018-06-11T13:19:25.446Z,100303.93
2018-06-11T13:21:58.825Z,100301.56
2018-06-11T13:24:32.200Z,100306.37
2018-06-11T13:27:05.600Z,100302.81
2018-06-11T13:29:38.992Z,100304.73
2018-06-11T13:32:12.581Z,100303.84
2018-06-11T13:34:46.120Z,100303.39
2018-06-11T13:37:19.671Z,100299.99
2018-06-11T13:39:53.210Z,100296.38
2018-06-11T13:42:26.630Z,100291.69
2018-06-11T13:45:00.037Z,100290.99
2018-06-11T13:47:33.443Z,100284.45
2018-06-11T13:50:06.887Z,100279.38
2018-06-11T13:52:40.248Z,100280.50
2018-06-11T13:55:13.682Z,100279.10
2018-06-11T13:57:47.064Z,100278.65
2018-06-11T14:00:20.485Z,100269.37
2018-06-11T14:02:53.856Z,100280.77
2018-06-11T14:05:27.243Z,100277.89
2018-06-11T14:08:00.644Z,100272.19
2018-06-11T14:10:34.059Z,100257.41
2018-06-11T14:13:07.445Z,100242.72
2018-06-11T14:15:40.884Z,100244.75
2018-06-11T14:18:14.256Z,100256.83
2018-06-11T14:20:48.891Z,100258.14
2018-06-11T14:23:23.528Z,100249.70
2018-06-11T14:25:58.267Z,100244.85
2018-06-11T14:28:32.844Z,100255.33
2018-06-11T14:31:07.546Z,100257.53
2018-06-11T14:33:42.173Z,100256.88
2018-06-11T14:36:16.973Z,100252.58
2018-06-11T14:38:51.532Z,100255.97
2018-06-11T14:41:26.182Z,100242.59
2018-06-11T14:44:00.826Z,100244.44
2018-06-11T14:46:35.522Z,100242.20
2018-06-11T14:49:08.935Z,100235.45
2018-06-11T14:51:42.315Z,100232.83
2018-06-11T14:54:15.672Z,100232.23
2018-06-11T14:56:49.295Z,100242.84
2018-06-11T14:59:22.701Z,100229.50
2018-06-11T15:01:56.091Z,100236.05
2018-06-11T15:04:29.455Z,100227.98
2018-06-11T15:07:02.857Z,100227.81
2018-06-11T15:09:36.239Z,100227.81
2018-06-11T15:12:09.652Z,100226.13
2018-06-11T15:14:43.130Z,100228.15
2018-06-11T15:17:16.531Z,100224.44
2018-06-11T15:19:49.926Z,100231.10
2018-06-11T15:22:23.319Z,100227.11
2018-06-11T15:24:57.080Z,100226.63
2018-06-11T15:27:30.872Z,100226.95
2018-06-11T15:30:04.377Z,100219.53
2018-06-11T15:32:37.956Z,100227.33
2018-06-11T15:35:11.323Z,100227.72
2018-06-11T15:37:44.704Z,100221.48
2018-06-11T15:40:18.111Z,100216.98
2018-06-11T15:42:51.500Z,100212.05
2018-06-11T15:45:25.589Z,100213.70
2018-06-11T15:47:59.879Z,100218.59
2018-06-11T15:50:34.176Z,100216.59
2018-06-11T15:53:08.384Z,100210.41
2018-06-11T15:55:42.443Z,100210.80
2018-06-11T15:58:16.519Z,100208.67
2018-06-11T16:00:50.679Z,100215.55
2018-06-11T16:03:24.754Z,100202.84
2018-06-11T16:05:58.811Z,100204.27
2018-06-11T16:08:32.812Z,100203.72
2018-06-11T16:11:07.046Z,100212.05
2018-06-11T16:13:40.451Z,100215.00
2018-06-11T16:16:13.836Z,100208.07
2018-06-11T16:18:47.203Z,100204.75
2018-06-11T16:21:20.584Z,100207.16
2018-06-11T16:23:53.929Z,100189.05
2018-06-11T16:26:27.364Z,100192.16
2018-06-11T16:29:01.454Z,100188.13
2018-06-11T16:31:36.997Z,100195.09
2018-06-11T16:34:11.808Z,100186.47
2018-06-11T16:36:46.520Z,100182.44
2018-06-11T16:39:21.966Z,100184.19
2018-06-11T16:41:56.657Z,100189.86
2018-06-11T16:44:32.024Z,100191.70
2018-06-11T16:47:06.715Z,100193.72
2018-06-11T16:49:41.265Z,100187.24
2018-06-11T16:52:15.883Z,100189.86
2018-06-11T16:54:52.294Z,100180.88
2018-06-11T16:57:27.074Z,100183.63
2018-06-11T17:00:01.455Z,100181.55
2018-06-11T17:02:34.895Z,100177.53
2018-06-11T17:05:08.351Z,100186.10
2018-06-11T17:07:41.739Z,100189.42
2018-06-11T17:13:10.620Z,100191.72
2018-06-11T17:15:44.028Z,100186.81
2018-06-11T17:18:17.487Z,100195.83
2018-06-11T17:20:51.890Z,100195.48
2018-06-11T17:23:25.309Z,100199.33
2018-06-11T17:25:58.800Z,100205.80
2018-06-11T17:28:32.245Z,100200.31
2018-06-11T17:31:05.981Z,100205.02
2018-06-11T17:33:39.512Z,100202.94
2018-06-11T17:36:12.958Z,100202.56
2018-06-11T17:38:46.384Z,100194.83
2018-06-11T17:41:19.865Z,100194.95
2018-06-11T17:43:53.332Z,100202.63
2018-06-11T17:46:31.768Z,100198.88
2018-06-11T17:49:05.257Z,100194.77
2018-06-11T17:51:38.734Z,100194.67
2018-06-11T17:54:12.197Z,100194.63
2018-06-11T17:56:45.624Z,100187.90
2018-06-11T17:59:19.161Z,100189.58
2018-06-11T18:01:52.563Z,100188.04
2018-06-11T18:04:26.056Z,100183.80
2018-06-11T18:06:59.424Z,100181.70
2018-06-11T18:09:33.452Z,100178.89
2018-06-11T18:12:07.533Z,100187.16
2018-06-11T18:14:41.010Z,100176.06
2018-06-11T18:17:14.415Z,100182.97
2018-06-11T18:19:47.875Z,100178.24
2018-06-11T18:22:21.299Z,100174.97
2018-06-11T18:24:54.681Z,100177.20
2018-06-11T18:27:28.158Z,100176.05
2018-06-11T18:30:01.573Z,100170.98
2018-06-11T18:32:34.990Z,100164.98
2018-06-11T18:35:08.407Z,100164.06
2018-06-11T18:37:41.873Z,100164.81
2018-06-11T18:40:15.265Z,100156.06
2018-06-11T18:42:48.717Z,100153.36
2018-06-11T18:45:22.092Z,100158.75
2018-06-11T18:47:55.492Z,100154.97
2018-06-11T18:50:28.990Z,100156.98
2018-06-11T18:53:02.402Z,100155.46
2018-06-11T18:55:35.837Z,100149.78
2018-06-11T18:58:09.293Z,100141.38
2018-06-11T19:00:42.699Z,100142.31
2018-06-11T19:03:21.643Z,100134.16
2018-06-11T19:05:55.056Z,100129.31
2018-06-11T19:08:28.496Z,100139.34
2018-06-11T19:11:01.899Z,100144.37
2018-06-11T19:13:35.344Z,100146.95
2018-06-11T19:16:08.740Z,100146.83
2018-06-11T19:18:42.180Z,100153.55
2018-06-11T19:21:15.628Z,100160.14
2018-06-11T19:23:49.076Z,100163.40
2018-06-11T19:26:22.582Z,100177.66
2018-06-11T19:28:56.043Z,100191.22
2018-06-11T19:31:29.439Z,100198.17
2018-06-11T19:34:02.871Z,100203.66
2018-06-11T19:36:36.282Z,100205.03
2018-06-11T19:39:09.703Z,100207.77
2018-06-11T19:41:43.129Z,100215.16
2018-06-11T19:44:16.552Z,100229.86
2018-06-11T19:46:50.089Z,100238.19
2018-06-11T19:49:23.815Z,100243.91
2018-06-11T19:51:57.339Z,100246.77
2018-06-11T19:54:30.792Z,100248.09
2018-06-11T19:57:12.028Z,100261.52
2018-06-11T19:59:45.446Z,100264.40
2018-06-11T20:02:18.913Z,100271.67
2018-06-11T20:04:52.349Z,100278.52
2018-06-11T20:07:25.754Z,100281.55
2018-06-11T20:09:59.199Z,100289.96
2018-06-11T20:12:32.597Z,100301.47
2018-06-11T20:15:06.056Z,100306.69
2018-06-11T20:17:39.421Z,100308.13
2018-06-11T20:20:12.800Z,100305.22
2018-06-11T20:22:46.177Z,100298.88
2018-06-11T20:25:19.661Z,100301.77
2018-06-11T20:27:53.043Z,100301.13
2018-06-11T20:30:29.356Z,100304.27
2018-06-11T20:33:05.894Z,100305.91
2018-06-11T20:35:39.396Z,100312.40
2018-06-11T20:38:12.740Z,100309.00
2018-06-11T20:40:48.649Z,100310.94
2018-06-11T20:43:22.089Z,100308.53
2018-06-11T20:45:55.478Z,100313.06
2018-06-11T20:48:32.254Z,100311.59
2018-06-11T20:51:12.290Z,100306.23
2018-06-11T20:53:48.129Z,100305.84
2018-06-11T20:56:23.576Z,100302.34
2018-06-11T20:59:02.158Z,100304.46
2018-06-11T21:01:41.881Z,100299.28
2018-06-11T21:04:19.776Z,100296.04
2018-06-11T21:06:57.145Z,100290.67
2018-06-11T21:09:33.431Z,100286.88
2018-06-11T21:14:58.945Z,100279.34
2018-06-11T21:17:38.886Z,100274.88
2018-06-11T21:20:17.117Z,100274.14
2018-06-11T21:22:57.644Z,100281.48
2018-06-11T21:25:34.652Z,100277.98
2018-06-11T21:28:10.186Z,100280.55
2018-06-11T21:30:49.406Z,100282.18
2018-06-11T21:33:26.700Z,100279.56
2018-06-11T21:36:04.778Z,100280.73
2018-06-11T21:38:39.933Z,100286.33
2018-06-11T21:41:18.412Z,100281.66
2018-06-11T21:43:56.401Z,100280.34
2018-06-11T21:46:32.737Z,100279.94
2018-06-11T21:49:08.028Z,100278.57
2018-06-11T21:51:45.042Z,100283.79
2018-06-11T21:54:21.172Z,100290.93
2018-06-11T21:56:59.432Z,100289.44
2018-06-11T21:59:35.676Z,100291.34
2018-06-11T22:02:10.860Z,100291.60
2018-06-11T22:04:50.528Z,100291.00
2018-06-11T22:07:26.440Z,100293.98
2018-06-11T22:10:01.521Z,100291.81
2018-06-11T22:12:37.810Z,100286.28
2018-06-11T22:15:14.760Z,100292.43
2018-06-11T22:17:50.100Z,100295.26
2018-06-11T22:20:26.626Z,100298.52
2018-06-11T22:23:03.033Z,100302.11
2018-06-11T22:25:42.373Z,100299.31
2018-06-11T22:28:20.686Z,100298.23
2018-06-11T22:30:57.752Z,100294.23
2018-06-11T22:33:39.411Z,100295.00
2018-06-11T22:36:15.071Z,100293.05
2018-06-11T22:38:52.786Z,100291.69
2018-06-11T22:41:29.281Z,100289.88
2018-06-11T22:44:06.462Z,100282.16
2018-06-11T22:46:43.459Z,100285.17
2018-06-11T22:49:21.337Z,100278.45
2018-06-11T22:51:59.618Z,100273.12
2018-06-11T22:54:34.762Z,100274.19
2018-06-11T22:57:13.274Z,100270.47
2018-06-11T22:59:51.033Z,100262.20
2018-06-11T23:02:27.177Z,100265.38
2018-06-11T23:05:04.217Z,100262.20
2018-06-11T23:07:40.599Z,100260.66
2018-06-11T23:10:18.569Z,100257.10
2018-06-11T23:12:55.108Z,100253.98
2018-06-11T23:15:30.472Z,100254.72
2018-06-11T23:18:06.590Z,100260.52
2018-06-11T23:20:42.422Z,100256.42
2018-06-11T23:23:19.589Z,100256.05
2018-06-11T23:25:55.395Z,100251.95
2018-06-11T23:28:30.933Z,100249.66
2018-06-11T23:31:06.920Z,100250.30
2018-06-11T23:33:43.114Z,100246.63
2018-06-11T23:36:20.272Z,100249.94
2018-06-11T23:38:55.215Z,100245.09
2018-06-11T23:41:30.129Z,100237.88
2018-06-11T23:44:07.477Z,100236.59
2018-06-11T23:46:44.435Z,100238.80
2018-06-11T23:49:19.281Z,100240.59
2018-06-11T23:51:54.546Z,100235.29
2018-06-11T23:54:35.347Z,100234.72
2018-06-11T23:57:14.976Z,100230.22
2018-06-11T23:59:50.904Z,100232.84
